Time;durP1;ratioP1;P1;durP2;ratioP2;P2;SDS_P1;SDS_P2;PMS_P1;PMS_P2;Temp;Humidity;BMP_temperature;BMP_pressure;BME280_temperature;BME280_humidity;BME280_pressure;Samples;Min_cycle;Max_cycle;Signal;HPM_P1;HPM_P2
2022/01/02 00:02:22;;;;;;;18.95;8.40;;;;;;;;;;5081196;28;20032;-79
2022/01/02 00:04:49;;;;;;;16.35;8.00;;;;;;;;;;5080812;28;20040;-79
2022/01/02 00:07:17;;;;;;;13.85;7.68;;;;;;;;;;5081287;28;20024;-79
2022/01/02 00:09:46;;;;;;;16.35;8.63;;;;;;;;;;5080715;28;20027;-78
2022/01/02 00:12:16;;;;;;;13.43;8.27;;;;;;;;;;5080006;28;20119;-78
2022/01/02 00:14:44;;;;;;;14.95;8.15;;;;;;;;;;5079067;28;20054;-80
2022/01/02 00:17:09;;;;;;;11.68;7.45;;;;;;;;;;5079036;28;20024;-79
2022/01/02 00:19:39;;;;;;;14.07;7.50;;;;;;;;;;5081545;28;20028;-79
2022/01/02 00:22:13;;;;;;;14.93;7.32;;;;;;;;;;5079546;28;20525;-81
2022/01/02 00:24:40;;;;;;;15.93;7.20;;;;;;;;;;5079820;28;20397;-79
2022/01/02 00:27:08;;;;;;;13.02;7.60;;;;;;;;;;5079741;28;20051;-78
2022/01/02 00:29:36;;;;;;;13.93;7.18;;;;;;;;;;5079606;28;20375;-81
2022/01/02 00:32:02;;;;;;;15.55;7.45;;;;;;;;;;5078518;28;20028;-79
2022/01/02 00:34:28;;;;;;;13.52;7.32;;;;;;;;;;5078795;28;20092;-80
2022/01/02 00:36:53;;;;;;;12.43;7.20;;;;;;;;;;5080435;28;20036;-80
2022/01/02 00:39:18;;;;;;;13.60;7.15;;;;;;;;;;5079865;28;20024;-79
2022/01/02 00:42:02;;;;;;;13.02;7.22;;;;;;;;;;5079556;28;20189;-80
2022/01/02 00:44:37;;;;;;;13.63;6.70;;;;;;;;;;5079261;28;20092;-78
2022/01/02 00:47:03;;;;;;;13.90;7.43;;;;;;;;;;5079165;28;20024;-79
2022/01/02 00:49:28;;;;;;;14.33;7.10;;;;;;;;;;5079607;28;20042;-78
2022/01/02 00:52:02;;;;;;;12.50;6.70;;;;;;;;;;5078971;28;20056;-77
2022/01/02 00:54:29;;;;;;;12.05;7.13;;;;;;;;;;5078664;28;20021;-78
2022/01/02 00:56:57;;;;;;;17.13;6.90;;;;;;;;;;5078036;28;20393;-80
2022/01/02 00:59:28;;;;;;;12.27;6.85;;;;;;;;;;5079088;28;20017;-78
2022/01/02 01:02:03;;;;;;;15.10;6.70;;;;;;;;;;5079169;28;20028;-79
2022/01/02 01:04:33;;;;;;;11.32;6.72;;;;;;;;;;5076904;28;20021;-80
2022/01/02 01:07:03;;;;;;;11.93;7.25;;;;;;;;;;5079554;28;20033;-77
2022/01/02 01:09:30;;;;;;;10.75;6.78;;;;;;;;;;5078624;28;20145;-79
2022/01/02 01:12:01;;;;;;;14.48;7.18;;;;;;;;;;5077539;28;20446;-77
2022/01/02 01:14:27;;;;;;;12.73;6.70;;;;;;;;;;5077520;28;20071;-80
2022/01/02 01:16:53;;;;;;;14.40;7.05;;;;;;;;;;5078149;28;20020;-78
2022/01/02 01:19:19;;;;;;;16.48;8.13;;;;;;;;;;5077529;28;20020;-79
2022/01/02 01:21:44;;;;;;;14.27;6.75;;;;;;;;;;5079199;28;20032;-80
2022/01/02 01:24:10;;;;;;;16.77;6.83;;;;;;;;;;5078740;28;20177;-79
2022/01/02 01:26:35;;;;;;;14.18;6.72;;;;;;;;;;5076982;28;20293;-79
2022/01/02 01:29:00;;;;;;;14.15;6.60;;;;;;;;;;5078620;28;20036;-78
2022/01/02 01:31:26;;;;;;;9.85;6.60;;;;;;;;;;5078784;28;20035;-78
2022/01/02 01:33:51;;;;;;;13.73;6.45;;;;;;;;;;5078686;28;20431;-79
2022/01/02 01:36:16;;;;;;;12.52;7.32;;;;;;;;;;5078292;28;20060;-80
2022/01/02 01:38:42;;;;;;;13.75;6.45;;;;;;;;;;5078042;28;20058;-79
2022/01/02 01:41:28;;;;;;;17.48;6.55;;;;;;;;;;5076279;28;20028;-79
2022/01/02 01:44:07;;;;;;;13.55;6.30;;;;;;;;;;5077008;28;20028;-80
2022/01/02 01:46:34;;;;;;;11.00;7.15;;;;;;;;;;5078848;28;20054;-78
2022/01/02 01:48:59;;;;;;;13.30;6.95;;;;;;;;;;5077794;28;20481;-79
2022/01/02 01:51:24;;;;;;;13.57;6.88;;;;;;;;;;5078371;28;20040;-80
2022/01/02 01:53:50;;;;;;;11.18;6.72;;;;;;;;;;5078572;28;20024;-80
2022/01/02 01:56:15;;;;;;;15.48;6.78;;;;;;;;;;5077800;28;20036;-80
2022/01/02 01:58:40;;;;;;;12.98;6.70;;;;;;;;;;5078098;28;20036;-80
2022/01/02 02:01:06;;;;;;;14.85;7.03;;;;;;;;;;5076088;28;20066;-78
2022/01/02 02:03:31;;;;;;;12.73;6.70;;;;;;;;;;5077890;28;20024;-78
2022/01/02 02:05:56;;;;;;;10.63;6.00;;;;;;;;;;5078257;28;20024;-78
2022/01/02 02:08:26;;;;;;;12.57;6.88;;;;;;;;;;5077847;28;20020;-79
2022/01/02 02:10:56;;;;;;;11.30;5.57;;;;;;;;;;5075829;28;20029;-78
2022/01/02 02:13:21;;;;;;;11.02;5.93;;;;;;;;;;5078124;28;20020;-78
2022/01/02 02:15:49;;;;;;;9.32;5.40;;;;;;;;;;5077476;28;20354;-78
2022/01/02 02:18:14;;;;;;;11.35;5.55;;;;;;;;;;5078484;28;20025;-78
2022/01/02 02:20:39;;;;;;;9.90;5.90;;;;;;;;;;5076985;28;20031;-79
2022/01/02 02:23:05;;;;;;;12.32;5.93;;;;;;;;;;5077461;28;20115;-79
2022/01/02 02:25:33;;;;;;;11.00;5.50;;;;;;;;;;5076885;28;20059;-78
2022/01/02 02:28:07;;;;;;;12.15;5.80;;;;;;;;;;5078526;28;20020;-80
2022/01/02 02:30:34;;;;;;;11.63;5.55;;;;;;;;;;5077471;28;20059;-79
2022/01/02 02:33:00;;;;;;;8.35;5.30;;;;;;;;;;5078140;28;20048;-78
2022/01/02 02:35:29;;;;;;;9.45;5.32;;;;;;;;;;5077242;28;20040;-78
2022/01/02 02:37:54;;;;;;;9.68;5.35;;;;;;;;;;5077597;28;20059;-79
2022/01/02 02:40:21;;;;;;;10.30;5.45;;;;;;;;;;5078613;28;20020;-80
2022/01/02 02:51:03;;;;;;;12.90;5.65;;;;;;;;;;5079742;28;20035;-80
2022/01/02 02:53:29;;;;;;;10.27;5.45;;;;;;;;;;5079661;28;20420;-80
2022/01/02 02:55:57;;;;;;;10.63;5.40;;;;;;;;;;5077987;28;20108;-80
2022/01/02 03:01:00;;;;;;;10.88;5.05;;;;;;;;;;5080542;28;20089;-77
2022/01/02 03:03:26;;;;;;;7.85;4.97;;;;;;;;;;5079547;28;20024;-81
2022/01/02 03:05:52;;;;;;;9.48;4.90;;;;;;;;;;5079571;28;20032;-81
2022/01/02 03:08:17;;;;;;;10.82;5.35;;;;;;;;;;5077570;28;20060;-79
2022/01/02 03:10:43;;;;;;;10.23;5.45;;;;;;;;;;5077133;28;20020;-79
2022/01/02 03:13:08;;;;;;;12.25;5.22;;;;;;;;;;5079054;28;20024;-81
2022/01/02 03:15:33;;;;;;;10.13;5.28;;;;;;;;;;5078390;28;20021;-80
2022/01/02 03:17:58;;;;;;;12.05;5.22;;;;;;;;;;5079324;28;20025;-81
2022/01/02 03:20:24;;;;;;;13.45;5.80;;;;;;;;;;5080443;28;20028;-78
2022/01/02 03:22:49;;;;;;;12.25;5.63;;;;;;;;;;5078950;28;20020;-78
2022/01/02 03:25:14;;;;;;;9.32;5.22;;;;;;;;;;5077516;28;20028;-78
2022/01/02 03:27:40;;;;;;;16.00;5.30;;;;;;;;;;5078683;28;20058;-79
2022/01/02 03:30:08;;;;;;;11.65;5.95;;;;;;;;;;5082590;28;20032;-79
2022/01/02 03:32:33;;;;;;;10.52;5.68;;;;;;;;;;5080562;28;20024;-80
2022/01/02 03:34:59;;;;;;;11.93;5.22;;;;;;;;;;5083044;28;20048;-79
2022/01/02 03:37:28;;;;;;;10.20;5.35;;;;;;;;;;5082906;28;20028;-81
2022/01/02 03:39:53;;;;;;;11.00;5.72;;;;;;;;;;5082566;28;20044;-80
2022/01/02 03:42:18;;;;;;;10.70;5.55;;;;;;;;;;5082221;28;20470;-79
2022/01/02 03:44:44;;;;;;;8.80;5.05;;;;;;;;;;5080780;28;20037;-79
2022/01/02 03:47:09;;;;;;;10.30;5.68;;;;;;;;;;5082649;28;20084;-79
2022/01/02 03:49:34;;;;;;;10.93;5.97;;;;;;;;;;5081056;28;20035;-80
2022/01/02 03:51:59;;;;;;;14.40;5.22;;;;;;;;;;5081200;28;20031;-80
2022/01/02 03:54:25;;;;;;;10.93;5.35;;;;;;;;;;5080684;28;20487;-81
2022/01/02 03:56:53;;;;;;;11.77;5.72;;;;;;;;;;5082984;28;20485;-79
2022/01/02 03:59:18;;;;;;;11.35;5.40;;;;;;;;;;5081410;28;20021;-79
2022/01/02 04:01:44;;;;;;;9.57;5.28;;;;;;;;;;5080252;28;20083;-79
2022/01/02 04:04:09;;;;;;;9.85;5.45;;;;;;;;;;5079849;28;20031;-79
2022/01/02 04:06:34;;;;;;;11.57;5.20;;;;;;;;;;5082268;28;20055;-79
2022/01/02 04:08:59;;;;;;;13.40;5.32;;;;;;;;;;5081629;28;20036;-78
2022/01/02 04:11:24;;;;;;;8.93;5.68;;;;;;;;;;5081672;28;20050;-79
2022/01/02 04:13:50;;;;;;;8.23;5.20;;;;;;;;;;5082084;28;20025;-78
2022/01/02 04:16:15;;;;;;;10.57;5.28;;;;;;;;;;5080937;28;20358;-79
2022/01/02 04:18:40;;;;;;;13.48;5.63;;;;;;;;;;5081602;28;20043;-79
2022/01/02 04:21:05;;;;;;;14.90;5.50;;;;;;;;;;5081777;28;20016;-79
2022/01/02 04:23:31;;;;;;;11.55;5.47;;;;;;;;;;5080256;28;20454;-79
2022/01/02 04:25:56;;;;;;;9.80;5.53;;;;;;;;;;5079547;28;20027;-79
2022/01/02 04:28:21;;;;;;;11.02;5.65;;;;;;;;;;5081765;28;20394;-78
2022/01/02 04:30:46;;;;;;;10.13;5.43;;;;;;;;;;5081474;28;20028;-81
2022/01/02 04:33:12;;;;;;;10.10;5.47;;;;;;;;;;5081699;28;20258;-81
2022/01/02 04:35:37;;;;;;;11.77;5.47;;;;;;;;;;5080712;28;20465;-79
2022/01/02 04:38:02;;;;;;;9.27;5.43;;;;;;;;;;5081575;28;20028;-80
2022/01/02 04:40:27;;;;;;;9.60;5.40;;;;;;;;;;5079978;28;20066;-79
2022/01/02 04:42:53;;;;;;;10.88;5.93;;;;;;;;;;5081729;28;20070;-79
2022/01/02 04:45:18;;;;;;;11.43;5.15;;;;;;;;;;5079373;28;20025;-79
2022/01/02 04:47:43;;;;;;;9.65;5.93;;;;;;;;;;5079910;28;20496;-79
2022/01/02 04:50:08;;;;;;;8.40;5.00;;;;;;;;;;5081408;28;20021;-78
2022/01/02 04:52:34;;;;;;;9.07;5.35;;;;;;;;;;5080809;28;20051;-80
2022/01/02 04:54:59;;;;;;;11.68;5.18;;;;;;;;;;5079704;28;20024;-79
2022/01/02 04:57:24;;;;;;;10.70;5.55;;;;;;;;;;5081418;28;20158;-79
2022/01/02 04:59:49;;;;;;;9.15;5.20;;;;;;;;;;5080003;28;20150;-79
2022/01/02 05:02:15;;;;;;;11.13;5.72;;;;;;;;;;5079185;28;20028;-78
2022/01/02 05:04:40;;;;;;;9.35;5.32;;;;;;;;;;5079008;28;20115;-79
2022/01/02 05:07:05;;;;;;;12.65;5.25;;;;;;;;;;5079392;28;20031;-79
2022/01/02 05:09:31;;;;;;;9.63;5.07;;;;;;;;;;5080297;28;20024;-80
2022/01/02 05:11:56;;;;;;;10.38;5.65;;;;;;;;;;5079320;28;20016;-80
2022/01/02 05:14:21;;;;;;;9.88;5.30;;;;;;;;;;5078666;28;20111;-79
2022/01/02 05:16:46;;;;;;;13.27;5.10;;;;;;;;;;5079879;28;20035;-78
2022/01/02 05:19:11;;;;;;;8.52;4.65;;;;;;;;;;5080306;28;20385;-78
2022/01/02 05:21:37;;;;;;;7.20;4.80;;;;;;;;;;5078637;28;20016;-79
2022/01/02 05:24:02;;;;;;;9.15;5.07;;;;;;;;;;5078423;28;20051;-77
2022/01/02 05:26:29;;;;;;;11.35;5.63;;;;;;;;;;5080533;28;20379;-79
2022/01/02 05:28:54;;;;;;;8.40;4.75;;;;;;;;;;5078910;28;20051;-79
2022/01/02 05:31:19;;;;;;;15.40;5.60;;;;;;;;;;5080179;28;20469;-78
2022/01/02 05:33:44;;;;;;;11.05;5.53;;;;;;;;;;5079185;28;20500;-79
2022/01/02 05:36:09;;;;;;;10.20;6.07;;;;;;;;;;5080013;28;20419;-78
2022/01/02 05:38:35;;;;;;;12.48;5.75;;;;;;;;;;5078088;28;20501;-78
2022/01/02 05:41:00;;;;;;;9.27;5.78;;;;;;;;;;5078143;28;20482;-78
2022/01/02 05:43:26;;;;;;;11.75;5.68;;;;;;;;;;5078054;28;20021;-79
2022/01/02 05:45:51;;;;;;;13.30;5.63;;;;;;;;;;5078147;28;20067;-77
2022/01/02 05:48:16;;;;;;;7.97;5.00;;;;;;;;;;5079647;28;20027;-77
2022/01/02 05:50:41;;;;;;;8.60;5.10;;;;;;;;;;5079314;28;20466;-78
2022/01/02 05:53:07;;;;;;;8.27;4.95;;;;;;;;;;5079600;28;20025;-79
2022/01/02 05:55:32;;;;;;;9.25;5.30;;;;;;;;;;5078902;28;20029;-79
2022/01/02 05:57:57;;;;;;;11.18;5.15;;;;;;;;;;5078049;28;20500;-78
2022/01/02 06:00:22;;;;;;;7.68;4.57;;;;;;;;;;5078801;28;20103;-79
2022/01/02 06:02:48;;;;;;;9.80;4.85;;;;;;;;;;5078923;28;20059;-78
2022/01/02 06:05:13;;;;;;;7.22;4.30;;;;;;;;;;5077703;28;20021;-78
2022/01/02 06:07:38;;;;;;;8.07;5.05;;;;;;;;;;5077585;28;20028;-79
2022/01/02 06:10:05;;;;;;;10.07;4.68;;;;;;;;;;5076824;28;20032;-79
2022/01/02 06:12:30;;;;;;;8.73;4.55;;;;;;;;;;5078047;28;20118;-79
2022/01/02 06:14:56;;;;;;;9.35;4.55;;;;;;;;;;5078326;28;20492;-79
2022/01/02 06:17:21;;;;;;;9.93;4.50;;;;;;;;;;5078699;28;20473;-80
2022/01/02 06:19:46;;;;;;;11.07;4.88;;;;;;;;;;5078902;28;20458;-80
2022/01/02 06:22:11;;;;;;;8.95;5.00;;;;;;;;;;5078476;28;20025;-77
2022/01/02 06:24:37;;;;;;;8.50;4.68;;;;;;;;;;5077501;28;20063;-79
2022/01/02 06:27:02;;;;;;;8.45;4.68;;;;;;;;;;5078750;28;20033;-81
2022/01/02 06:29:27;;;;;;;9.57;4.70;;;;;;;;;;5078650;28;20077;-79
2022/01/02 06:31:53;;;;;;;7.82;4.95;;;;;;;;;;5078530;28;20473;-79
2022/01/02 06:34:18;;;;;;;8.40;5.20;;;;;;;;;;5076882;28;20605;-80
2022/01/02 06:36:44;;;;;;;8.85;4.85;;;;;;;;;;5079586;28;20028;-79
2022/01/02 06:39:09;;;;;;;8.55;4.88;;;;;;;;;;5078697;28;20016;-79
2022/01/02 06:41:34;;;;;;;6.40;4.60;;;;;;;;;;5078545;28;20078;-79
2022/01/02 06:43:59;;;;;;;10.50;5.00;;;;;;;;;;5078864;28;20025;-80
2022/01/02 06:46:25;;;;;;;8.40;4.97;;;;;;;;;;5079095;28;20170;-79
2022/01/02 06:48:50;;;;;;;11.38;4.68;;;;;;;;;;5079108;28;20034;-80
2022/01/02 06:51:15;;;;;;;8.43;5.03;;;;;;;;;;5080209;28;20115;-79
2022/01/02 06:53:40;;;;;;;10.50;5.07;;;;;;;;;;5078445;28;20284;-79
2022/01/02 06:56:05;;;;;;;9.13;5.30;;;;;;;;;;5078474;28;20025;-79
2022/01/02 06:58:31;;;;;;;9.30;4.82;;;;;;;;;;5079575;28;20269;-80
2022/01/02 07:00:56;;;;;;;11.35;4.93;;;;;;;;;;5077785;28;20024;-79
2022/01/02 07:03:24;;;;;;;10.25;5.30;;;;;;;;;;5081056;28;20021;-78
2022/01/02 07:05:49;;;;;;;10.63;5.40;;;;;;;;;;5082940;28;20070;-78
2022/01/02 07:08:15;;;;;;;10.65;5.40;;;;;;;;;;5081867;28;20029;-79
2022/01/02 07:10:40;;;;;;;8.77;5.35;;;;;;;;;;5083188;28;20035;-80
2022/01/02 07:13:06;;;;;;;8.73;5.18;;;;;;;;;;5083321;28;20028;-79
2022/01/02 07:15:31;;;;;;;12.35;5.80;;;;;;;;;;5082062;28;20020;-78
2022/01/02 07:17:57;;;;;;;10.30;5.70;;;;;;;;;;5081424;28;20029;-78
2022/01/02 07:20:22;;;;;;;11.35;5.50;;;;;;;;;;5081051;28;20025;-79
2022/01/02 07:22:47;;;;;;;11.52;5.63;;;;;;;;;;5082442;28;20078;-78
2022/01/02 07:25:13;;;;;;;9.48;5.38;;;;;;;;;;5081918;28;20066;-80
2022/01/02 07:27:38;;;;;;;8.20;5.25;;;;;;;;;;5083577;28;20029;-80
2022/01/02 07:30:05;;;;;;;11.60;5.60;;;;;;;;;;5082553;28;20028;-78
2022/01/02 07:32:30;;;;;;;11.45;5.18;;;;;;;;;;5082326;28;20028;-78
2022/01/02 07:34:55;;;;;;;10.55;5.57;;;;;;;;;;5082244;28;20024;-80
2022/01/02 07:37:21;;;;;;;12.18;5.90;;;;;;;;;;5082327;28;20031;-78
2022/01/02 07:39:46;;;;;;;12.60;5.25;;;;;;;;;;5082756;28;20023;-79
2022/01/02 07:42:11;;;;;;;12.02;5.47;;;;;;;;;;5081006;28;20029;-78
2022/01/02 07:44:37;;;;;;;8.63;4.95;;;;;;;;;;5080299;28;20432;-80
2022/01/02 07:47:06;;;;;;;9.85;4.60;;;;;;;;;;5081109;28;20028;-80
2022/01/02 07:49:31;;;;;;;7.10;4.68;;;;;;;;;;5081903;28;20032;-80
2022/01/02 07:51:57;;;;;;;6.63;4.32;;;;;;;;;;5080232;28;20046;-77
2022/01/02 07:54:22;;;;;;;7.18;4.55;;;;;;;;;;5082419;28;20021;-79
2022/01/02 07:56:47;;;;;;;8.17;4.23;;;;;;;;;;5081636;28;20032;-78
2022/01/02 07:59:12;;;;;;;7.47;4.20;;;;;;;;;;5081218;28;20257;-79
2022/01/02 08:01:38;;;;;;;8.85;4.50;;;;;;;;;;5080559;28;20078;-78
2022/01/02 08:04:03;;;;;;;8.32;4.65;;;;;;;;;;5078560;28;20123;-79
2022/01/02 08:06:28;;;;;;;10.60;4.57;;;;;;;;;;5081176;28;20063;-79
2022/01/02 08:08:54;;;;;;;8.90;4.55;;;;;;;;;;5080294;28;20459;-78
2022/01/02 08:11:19;;;;;;;8.73;4.37;;;;;;;;;;5080108;28;20024;-79
2022/01/02 08:13:44;;;;;;;6.47;4.38;;;;;;;;;;5078047;28;20557;-78
2022/01/02 08:16:11;;;;;;;8.70;4.35;;;;;;;;;;5078576;28;20020;-78
2022/01/02 08:18:36;;;;;;;7.20;4.38;;;;;;;;;;5079848;28;20029;-80
2022/01/02 08:21:01;;;;;;;8.73;4.72;;;;;;;;;;5078499;28;20080;-80
2022/01/02 08:23:27;;;;;;;9.68;4.60;;;;;;;;;;5079028;28;20020;-78
2022/01/02 08:25:52;;;;;;;9.45;4.53;;;;;;;;;;5078867;28;20025;-79
2022/01/02 08:28:19;;;;;;;8.05;4.72;;;;;;;;;;5079691;28;20033;-77
2022/01/02 08:30:44;;;;;;;10.52;5.20;;;;;;;;;;5079971;28;20020;-78
2022/01/02 08:33:10;;;;;;;9.00;4.63;;;;;;;;;;5077299;28;20443;-77
2022/01/02 08:35:37;;;;;;;7.30;4.60;;;;;;;;;;5078948;28;20455;-80
2022/01/02 08:38:02;;;;;;;8.75;4.95;;;;;;;;;;5078249;28;20222;-78
2022/01/02 08:40:28;;;;;;;8.48;4.53;;;;;;;;;;5079905;28;20126;-78
2022/01/02 08:42:53;;;;;;;9.57;5.10;;;;;;;;;;5077604;28;20029;-77
2022/01/02 08:45:18;;;;;;;8.20;4.93;;;;;;;;;;5079121;28;20016;-77
2022/01/02 08:47:43;;;;;;;10.80;5.05;;;;;;;;;;5079343;28;20024;-81
2022/01/02 08:50:09;;;;;;;10.57;4.78;;;;;;;;;;5076963;28;20017;-77
2022/01/02 08:52:35;;;;;;;10.20;4.72;;;;;;;;;;5079186;28;20035;-78
2022/01/02 08:55:00;;;;;;;10.68;5.20;;;;;;;;;;5079087;28;20028;-79
2022/01/02 08:57:25;;;;;;;10.27;4.88;;;;;;;;;;5078818;28;20549;-79
2022/01/02 08:59:51;;;;;;;10.77;5.35;;;;;;;;;;5077513;28;20028;-78
2022/01/02 09:02:16;;;;;;;11.38;5.00;;;;;;;;;;5078735;28;20052;-78
2022/01/02 09:04:41;;;;;;;8.93;4.80;;;;;;;;;;5079222;28;20034;-78
2022/01/02 09:07:06;;;;;;;9.93;4.80;;;;;;;;;;5078474;28;20404;-79
2022/01/02 09:09:33;;;;;;;7.85;4.65;;;;;;;;;;5079466;28;20051;-78
2022/01/02 09:11:58;;;;;;;9.85;4.93;;;;;;;;;;5079317;28;20099;-78
2022/01/02 09:14:24;;;;;;;8.88;4.80;;;;;;;;;;5079317;28;20051;-78
2022/01/02 09:16:49;;;;;;;9.18;4.47;;;;;;;;;;5077463;28;20028;-80
2022/01/02 09:19:14;;;;;;;8.20;5.00;;;;;;;;;;5077865;28;20487;-80
2022/01/02 09:21:39;;;;;;;11.98;4.90;;;;;;;;;;5079201;28;20017;-79
2022/01/02 09:24:05;;;;;;;12.15;5.30;;;;;;;;;;5079054;28;20024;-80
2022/01/02 09:26:31;;;;;;;8.93;5.15;;;;;;;;;;5077394;28;20032;-78
2022/01/02 09:28:56;;;;;;;10.98;5.05;;;;;;;;;;5078288;28;20017;-78
2022/01/02 09:31:22;;;;;;;10.93;4.90;;;;;;;;;;5079316;28;20063;-79
2022/01/02 09:33:47;;;;;;;9.25;5.22;;;;;;;;;;5077160;28;20055;-83
2022/01/02 09:36:12;;;;;;;11.65;5.20;;;;;;;;;;5078680;28;20025;-80
2022/01/02 09:38:38;;;;;;;9.75;5.82;;;;;;;;;;5078568;28;20027;-78
2022/01/02 09:41:04;;;;;;;12.68;6.00;;;;;;;;;;5078855;28;20085;-79
2022/01/02 09:43:30;;;;;;;14.98;6.13;;;;;;;;;;5077729;28;20024;-79
2022/01/02 09:45:55;;;;;;;11.10;6.22;;;;;;;;;;5077329;28;20026;-79
2022/01/02 09:48:21;;;;;;;10.85;5.28;;;;;;;;;;5078847;28;20020;-80
2022/01/02 09:50:47;;;;;;;10.32;5.50;;;;;;;;;;5078535;28;20465;-79
2022/01/02 09:53:13;;;;;;;11.38;5.05;;;;;;;;;;5077000;28;20087;-79
2022/01/02 09:55:40;;;;;;;12.23;5.10;;;;;;;;;;5078725;28;20035;-79
2022/01/02 09:58:10;;;;;;;11.70;5.60;;;;;;;;;;5078309;28;20175;-78
2022/01/02 10:00:37;;;;;;;14.63;5.57;;;;;;;;;;5078417;28;20025;-80
2022/01/02 10:03:11;;;;;;;11.90;5.28;;;;;;;;;;5078452;28;20123;-78
2022/01/02 10:05:52;;;;;;;7.93;4.88;;;;;;;;;;5077282;28;20032;-78
2022/01/02 10:08:20;;;;;;;11.13;5.28;;;;;;;;;;5077632;28;20040;-78
2022/01/02 10:10:45;;;;;;;10.20;5.35;;;;;;;;;;5078740;28;20405;-79
2022/01/02 10:13:10;;;;;;;12.55;5.80;;;;;;;;;;5081068;28;20024;-78
2022/01/02 10:15:36;;;;;;;9.73;5.45;;;;;;;;;;5079602;28;20020;-80
2022/01/02 10:18:08;;;;;;;9.00;5.30;;;;;;;;;;5078912;28;20028;-79
2022/01/02 10:20:42;;;;;;;10.45;6.10;;;;;;;;;;5080846;28;20048;-79
2022/01/02 10:23:24;;;;;;;11.23;5.55;;;;;;;;;;5079193;28;20020;-78
2022/01/02 10:25:55;;;;;;;12.90;5.90;;;;;;;;;;5079153;28;20482;-79
2022/01/02 10:28:29;;;;;;;12.27;6.70;;;;;;;;;;5080305;28;20055;-78
2022/01/02 10:30:59;;;;;;;13.45;7.00;;;;;;;;;;5080497;28;20021;-80
2022/01/02 10:33:26;;;;;;;15.38;6.75;;;;;;;;;;5080371;28;20149;-78
2022/01/02 10:35:56;;;;;;;13.50;6.10;;;;;;;;;;5077897;28;20020;-78
2022/01/02 10:38:22;;;;;;;8.77;5.25;;;;;;;;;;5080017;28;20082;-78
2022/01/02 10:40:47;;;;;;;10.95;5.30;;;;;;;;;;5082144;28;20016;-78
2022/01/02 10:43:25;;;;;;;9.63;5.30;;;;;;;;;;5081776;28;20023;-80
2022/01/02 10:45:52;;;;;;;10.48;5.43;;;;;;;;;;5081792;28;20020;-78
2022/01/02 10:48:38;;;;;;;7.97;4.70;;;;;;;;;;5079428;28;20021;-80
2022/01/02 10:51:17;;;;;;;8.35;4.93;;;;;;;;;;5080631;28;20035;-78
2022/01/02 10:53:52;;;;;;;10.45;5.25;;;;;;;;;;5079250;28;20042;-78
2022/01/02 10:56:20;;;;;;;10.77;5.50;;;;;;;;;;5080632;28;20020;-77
2022/01/02 10:58:47;;;;;;;10.13;5.28;;;;;;;;;;5079570;28;20028;-78
2022/01/02 11:01:12;;;;;;;8.45;5.30;;;;;;;;;;5080746;28;20106;-78
2022/01/02 11:03:38;;;;;;;9.93;5.63;;;;;;;;;;5080196;28;20152;-80
2022/01/02 11:06:08;;;;;;;11.95;5.72;;;;;;;;;;5080364;28;20024;-78
2022/01/02 11:08:36;;;;;;;9.75;5.43;;;;;;;;;;5081783;28;20028;-78
2022/01/02 11:11:03;;;;;;;10.63;5.00;;;;;;;;;;5079220;28;20020;-79
2022/01/02 11:13:30;;;;;;;9.50;5.55;;;;;;;;;;5081383;28;20028;-79
2022/01/02 11:15:55;;;;;;;10.27;5.57;;;;;;;;;;5080953;28;20060;-79
2022/01/02 11:18:21;;;;;;;8.70;5.28;;;;;;;;;;5079051;28;20020;-79
2022/01/02 11:20:47;;;;;;;10.45;5.18;;;;;;;;;;5080956;28;20109;-79
2022/01/02 11:23:27;;;;;;;10.27;5.40;;;;;;;;;;5080515;28;20036;-79
2022/01/02 11:26:14;;;;;;;12.05;5.25;;;;;;;;;;5080217;28;20031;-79
2022/01/02 11:28:44;;;;;;;10.95;5.70;;;;;;;;;;5079774;28;20024;-79
2022/01/02 11:31:10;;;;;;;9.45;5.00;;;;;;;;;;5080518;28;20040;-80
2022/01/02 11:33:39;;;;;;;11.40;5.30;;;;;;;;;;5080949;28;20032;-79
2022/01/02 11:36:21;;;;;;;9.23;5.20;;;;;;;;;;5080478;28;20366;-79
2022/01/02 11:39:04;;;;;;;10.73;5.95;;;;;;;;;;5080100;28;20069;-79
2022/01/02 11:41:37;;;;;;;9.67;5.43;;;;;;;;;;5080890;28;20038;-79
2022/01/02 11:44:08;;;;;;;11.57;5.90;;;;;;;;;;5079367;28;20025;-79
2022/01/02 11:46:52;;;;;;;12.05;5.70;;;;;;;;;;5078761;28;20485;-79
2022/01/02 11:49:21;;;;;;;12.60;5.78;;;;;;;;;;5080357;28;20032;-78
2022/01/02 11:51:47;;;;;;;12.20;5.93;;;;;;;;;;5080160;28;20485;-78
2022/01/02 11:54:31;;;;;;;12.93;6.20;;;;;;;;;;5079681;28;20051;-79
2022/01/02 11:57:25;;;;;;;10.65;5.85;;;;;;;;;;5079250;28;20285;-77
2022/01/02 11:59:52;;;;;;;;;;;;;;;;;;5078913;28;20036;-77
2022/01/02 12:02:26;;;;;;;9.68;5.30;;;;;;;;;;5078999;28;19971;-78
2022/01/02 12:07:41;;;;;;;11.15;5.90;;;;;;;;;;5079816;28;20028;-78
2022/01/02 12:10:16;;;;;;;10.05;6.00;;;;;;;;;;5078675;28;20432;-77
2022/01/02 12:12:59;;;;;;;12.43;5.78;;;;;;;;;;5077100;28;20544;-77
2022/01/02 12:15:30;;;;;;;11.23;5.97;;;;;;;;;;5079133;28;20020;-77
2022/01/02 12:18:41;;;;;;;10.85;5.85;;;;;;;;;;5078663;28;20044;-77
2022/01/02 12:21:06;;;;;;;10.63;5.93;;;;;;;;;;5078971;28;20024;-76
2022/01/02 12:23:34;;;;;;;9.37;5.77;;;;;;;;;;5077356;28;20496;-78
2022/01/02 12:26:04;;;;;;;12.68;6.10;;;;;;;;;;5077290;28;20653;-80
2022/01/02 12:28:36;;;;;;;11.38;5.97;;;;;;;;;;5079107;28;20032;-79
2022/01/02 12:31:03;;;;;;;11.07;5.68;;;;;;;;;;5077982;28;20020;-77
2022/01/02 12:33:33;;;;;;;11.80;5.95;;;;;;;;;;5077343;28;20028;-78
2022/01/02 12:36:20;;;;;;;11.75;5.53;;;;;;;;;;5079473;28;20050;-79
2022/01/02 12:38:54;;;;;;;10.80;6.13;;;;;;;;;;5079026;28;20052;-78
2022/01/02 12:41:23;;;;;;;10.95;5.80;;;;;;;;;;5079370;28;20031;-79
2022/01/02 12:43:58;;;;;;;11.65;5.82;;;;;;;;;;5078862;28;20033;-77
2022/01/02 12:46:34;;;;;;;10.32;5.90;;;;;;;;;;5078279;28;20430;-78
2022/01/02 12:49:00;;;;;;;10.13;5.15;;;;;;;;;;5080146;28;20366;-79
2022/01/02 12:51:30;;;;;;;12.30;6.22;;;;;;;;;;5079178;28;20056;-79
2022/01/02 12:54:10;;;;;;;9.70;5.38;;;;;;;;;;5079745;28;20032;-79
2022/01/02 12:56:44;;;;;;;12.68;5.78;;;;;;;;;;5078958;28;20032;-79
2022/01/02 12:59:20;;;;;;;9.93;5.70;;;;;;;;;;5079023;28;20032;-79
2022/01/02 13:01:56;;;;;;;10.93;5.78;;;;;;;;;;5078383;28;20029;-79
2022/01/02 13:04:29;;;;;;;12.70;6.30;;;;;;;;;;5079732;28;20084;-80
2022/01/02 13:06:56;;;;;;;10.70;6.28;;;;;;;;;;5079311;28;20153;-79
2022/01/02 13:09:31;;;;;;;12.98;6.05;;;;;;;;;;5078059;28;20032;-78
2022/01/02 13:11:57;;;;;;;11.63;5.93;;;;;;;;;;5079905;28;20050;-79
2022/01/02 13:14:40;;;;;;;12.60;6.47;;;;;;;;;;5078399;28;20343;-79
2022/01/02 13:17:15;;;;;;;11.38;6.03;;;;;;;;;;5078729;28;20063;-79
2022/01/02 13:19:44;;;;;;;11.60;5.95;;;;;;;;;;5079023;28;20051;-78
2022/01/02 13:22:18;;;;;;;13.07;5.60;;;;;;;;;;5079188;28;20024;-79
2022/01/02 13:24:45;;;;;;;15.57;6.30;;;;;;;;;;5079813;28;20427;-80
2022/01/02 13:27:11;;;;;;;14.90;6.45;;;;;;;;;;5080194;28;20397;-79
2022/01/02 13:29:36;;;;;;;14.10;6.00;;;;;;;;;;5079649;28;20028;-79
2022/01/02 13:32:40;;;;;;;11.70;5.70;;;;;;;;;;5079589;28;20032;-80
2022/01/02 13:35:09;;;;;;;11.05;5.43;;;;;;;;;;5073274;28;20040;-78
2022/01/02 13:37:42;;;;;;;11.80;5.65;;;;;;;;;;5079522;28;20064;-78
2022/01/02 13:40:10;;;;;;;11.60;5.78;;;;;;;;;;5079063;28;20373;-80
2022/01/02 13:42:41;;;;;;;15.15;6.15;;;;;;;;;;5078825;28;20054;-78
2022/01/02 13:45:12;;;;;;;11.77;6.05;;;;;;;;;;5079475;28;20039;-79
2022/01/02 13:47:37;;;;;;;11.23;5.72;;;;;;;;;;5076868;28;20120;-79
2022/01/02 13:50:03;;;;;;;10.75;5.07;;;;;;;;;;5078801;28;20051;-78
2022/01/02 13:52:29;;;;;;;10.18;5.55;;;;;;;;;;5079888;28;20025;-79
2022/01/02 13:55:08;;;;;;;10.63;5.78;;;;;;;;;;5078739;28;20035;-79
2022/01/02 13:57:33;;;;;;;12.52;6.35;;;;;;;;;;5079027;28;20024;-79
2022/01/02 14:00:18;;;;;;;9.70;6.23;;;;;;;;;;5079297;28;20032;-80
2022/01/02 14:02:43;;;;;;;11.13;6.38;;;;;;;;;;5079117;28;20264;-79
2022/01/02 14:05:08;;;;;;;12.38;5.88;;;;;;;;;;5078378;28;20020;-77
2022/01/02 14:07:36;;;;;;;10.32;6.35;;;;;;;;;;5077562;28;20064;-79
2022/01/02 14:10:04;;;;;;;14.52;6.30;;;;;;;;;;5078118;28;20028;-79
2022/01/02 14:12:33;;;;;;;13.90;5.93;;;;;;;;;;5078027;28;20039;-78
2022/01/02 14:15:13;;;;;;;11.48;6.68;;;;;;;;;;5078591;28;20033;-78
2022/01/02 14:17:49;;;;;;;12.50;7.03;;;;;;;;;;5078750;28;20561;-80
2022/01/02 14:20:20;;;;;;;12.43;6.50;;;;;;;;;;5078778;28;20036;-78
2022/01/02 14:22:48;;;;;;;9.50;5.50;;;;;;;;;;5077745;28;20036;-78
2022/01/02 14:25:16;;;;;;;13.20;6.30;;;;;;;;;;5078134;28;20028;-78
2022/01/02 14:27:53;;;;;;;8.38;4.90;;;;;;;;;;5079279;28;20032;-78
2022/01/02 14:30:20;;;;;;;11.45;5.38;;;;;;;;;;5076921;28;20036;-78
2022/01/02 14:32:45;;;;;;;12.07;5.28;;;;;;;;;;5077502;28;20569;-78
2022/01/02 14:35:13;;;;;;;10.77;5.68;;;;;;;;;;5076753;28;20021;-80
2022/01/02 14:37:38;;;;;;;9.57;5.53;;;;;;;;;;5079890;28;20560;-78
2022/01/02 14:40:06;;;;;;;11.98;5.95;;;;;;;;;;5078613;28;20056;-79
2022/01/02 14:42:32;;;;;;;11.18;6.00;;;;;;;;;;5078204;28;20082;-78
2022/01/02 14:44:58;;;;;;;15.23;6.40;;;;;;;;;;5076625;28;20028;-79
2022/01/02 14:47:23;;;;;;;11.45;5.53;;;;;;;;;;5077571;28;20359;-78
2022/01/02 14:49:48;;;;;;;11.50;5.45;;;;;;;;;;5076525;28;20036;-79
2022/01/02 14:52:14;;;;;;;12.02;5.80;;;;;;;;;;5076836;28;20020;-78